Iskander — 3V4713 — position and weather

sailwx.info

Track history (hours):
 
Tides and Currents Weather Stations Pressure Air Temp Water Temp Dewpoint Dewpoint Depression Visibility Wind Speed Wind Dir Waves Ship Positions

Iskander

Last reported at 2018-Jun-10 08:00 UTC. Time now 2018-Jun-20 20:58 UTC.
Position N 36°08' E 013°20'.
Warning: this ship's position is 10 days out of date.

Length 81 m; draft 5.5 m.

Type: Cargo ship. MMSI: 672296000.

Date/timePositionNaut miles runAvg speedWind from/ knotsBaromVisibWave heightAir tempDewpointWater temp
2018-Jun-10 08:00N 36°08' E 013°20'4 8.3
2018-Jun-10 07:30N 36°06' E 013°25'4 8.2
2018-Jun-10 06:59N 36°04' E 013°29'54 7.8
2018-Jun-10 00:00N 35°46' E 014°33'4 3.5
2018-Jun-09 22:58N 35°49' E 014°35'0 0.0
2018-Jun-09 20:34N 35°49' E 014°35'0 0.1
2018-Jun-09 20:19N 35°49' E 014°35'0 0.1
2018-Jun-09 19:55N 35°49' E 014°35'0 0.1
2018-Jun-09 19:22N 35°49' E 014°35'0 0.1
2018-Jun-09 18:58N 35°49' E 014°35'1 2.7
2018-Jun-09 18:30N 35°49' E 014°37'3 5.2
2018-Jun-09 17:58N 35°50' E 014°40'2 4.9
2018-Jun-09 17:28N 35°50' E 014°43'2 4.4
2018-Jun-09 17:00N 35°50' E 014°46'2 4.5
2018-Jun-09 16:29N 35°51' E 014°48'3 6.1
2018-Jun-09 16:00N 35°52' E 014°52'  
2018-Jun-05 22:03N 40°28' E 026°50'0 9.0
2018-Jun-05 22:00N 40°28' E 026°50'  
2018-Jun-01 16:38N 37°38' E 023°47'1 9.3
2018-Jun-01 16:30N 37°38' E 023°45'5 9.6
2018-Jun-01 16:00N 37°39' E 023°39'6 9.6
2018-Jun-01 15:25N 37°39' E 023°32'4 9.5
2018-Jun-01 14:59N 37°40' E 023°27'5 9.8
2018-Jun-01 14:30N 37°40' E 023°21'5 8.6
2018-Jun-01 13:59N 37°43' E 023°17'5 9.4
2018-Jun-01 13:30N 37°47' E 023°13'5 9.6
2018-Jun-01 13:01N 37°51' E 023°10'5 9.3
2018-Jun-01 12:31N 37°53' E 023°05'3 6.3
2018-Jun-01 11:58N 37°55' E 023°01'0 0.0
2018-Jun-01 11:28N 37°55' E 023°01'0 0.0
2018-Jun-01 10:58N 37°55' E 023°01'0 0.0
2018-Jun-01 10:29N 37°55' E 023°01'0 0.0
2018-Jun-01 09:58N 37°55' E 023°01'0 0.0
2018-Jun-01 09:28N 37°55' E 023°01'0 0.0
2018-Jun-01 08:58N 37°55' E 023°01'0 0.0
2018-Jun-01 08:28N 37°55' E 023°01'0 0.0
2018-Jun-01 07:58N 37°55' E 023°01'0 0.0
2018-Jun-01 07:28N 37°55' E 023°01'0 0.0
2018-Jun-01 06:58N 37°55' E 023°01'0 0.0
2018-Jun-01 06:31N 37°55' E 023°01'0 0.0
2018-Jun-01 05:55N 37°55' E 023°01'0 0.0
2018-Jun-01 05:31N 37°55' E 023°01'0 0.0
2018-Jun-01 05:00N 37°55' E 023°01'0 0.0
2018-Jun-01 04:27N 37°55' E 023°01'0 0.0
2018-Jun-01 04:00N 37°55' E 023°01'0 0.0
2018-Jun-01 03:30N 37°55' E 023°01'0 0.0
2018-Jun-01 03:00N 37°55' E 023°01'0 0.0
2018-Jun-01 02:30N 37°55' E 023°01'0 0.0
2018-Jun-01 02:00N 37°55' E 023°01'0 0.0
2018-Jun-01 01:30N 37°55' E 023°01'0 0.0
2018-Jun-01 01:00N 37°55' E 023°01'0 0.0
2018-Jun-01 00:30N 37°55' E 023°01'0 0.0
2018-Jun-01 00:00N 37°55' E 023°01'0 0.0
2018-May-31 23:30N 37°55' E 023°01'0 0.0
2018-May-31 23:00N 37°55' E 023°01'0 0.0
2018-May-31 22:30N 37°55' E 023°01'0 0.0
2018-May-31 22:00N 37°55' E 023°01'0 0.0
2018-May-31 21:30N 37°55' E 023°01'0 0.0
2018-May-31 21:00N 37°55' E 023°01'0 0.0
2018-May-31 20:30N 37°55' E 023°01'0 0.0
2018-May-31 20:00N 37°55' E 023°01'0 0.0
2018-May-31 19:30N 37°55' E 023°01'0 0.0
2018-May-31 19:00N 37°55' E 023°01'0 0.0
2018-May-31 18:30N 37°55' E 023°01'0 0.0
2018-May-31 18:00N 37°55' E 023°01'0 0.0
2018-May-31 17:30N 37°55' E 023°01'0 0.0
2018-May-31 17:00N 37°55' E 023°01'0 0.0
2018-May-31 16:30N 37°55' E 023°01'0 0.0
2018-May-31 16:00N 37°55' E 023°01'0 0.0
2018-May-31 15:30N 37°55' E 023°01'0 0.0
2018-May-31 15:00N 37°55' E 023°01'0 0.0
2018-May-31 14:30N 37°55' E 023°01'0 0.0
2018-May-31 14:00N 37°55' E 023°01'0 0.0
2018-May-31 13:30N 37°55' E 023°01'0 0.0
2018-May-31 13:00N 37°55' E 023°01'0 0.0
2018-May-31 12:30N 37°55' E 023°01'0 0.0
2018-May-31 12:00N 37°55' E 023°01'0 0.0
2018-May-31 11:30N 37°55' E 023°01'0 0.0
2018-May-31 11:00N 37°55' E 023°01'0 0.0
2018-May-31 10:30N 37°55' E 023°01'0 0.0
2018-May-31 10:00N 37°55' E 023°01'0 0.0
2018-May-31 09:30N 37°55' E 023°01'0 0.0
2018-May-31 09:00N 37°55' E 023°01'0 0.0
2018-May-31 08:30N 37°55' E 023°01'0 0.0
2018-May-31 08:00N 37°55' E 023°01'  
Track history (hours):
 
Tides and Currents Weather Stations Pressure Air Temp Water Temp Dewpoint Dewpoint Depression Visibility Wind Speed Wind Dir Waves Ship Positions

Iskander

Last reported at 2018-Jun-10 08:00 UTC. Time now 2018-Jun-20 20:58 UTC.
Position N 36°08' E 013°20'.
Warning: this ship's position is 10 days out of date.

Length 81 m; draft 5.5 m.

Type: Cargo ship. MMSI: 672296000.

Date/timePositionNaut miles runAvg speedWind from/ knotsBaromVisibWave heightAir tempDewpointWater temp
2018-Jun-10 08:00N 36°08' E 013°20'4 8.3
2018-Jun-10 07:30N 36°06' E 013°25'4 8.2
2018-Jun-10 06:59N 36°04' E 013°29'54 7.8
2018-Jun-10 00:00N 35°46' E 014°33'4 3.5
2018-Jun-09 22:58N 35°49' E 014°35'0 0.0
2018-Jun-09 20:34N 35°49' E 014°35'0 0.1
2018-Jun-09 20:19N 35°49' E 014°35'0 0.1
2018-Jun-09 19:55N 35°49' E 014°35'0 0.1
2018-Jun-09 19:22N 35°49' E 014°35'0 0.1
2018-Jun-09 18:58N 35°49' E 014°35'1 2.7
2018-Jun-09 18:30N 35°49' E 014°37'3 5.2
2018-Jun-09 17:58N 35°50' E 014°40'2 4.9
2018-Jun-09 17:28N 35°50' E 014°43'2 4.4
2018-Jun-09 17:00N 35°50' E 014°46'2 4.5
2018-Jun-09 16:29N 35°51' E 014°48'3 6.1
2018-Jun-09 16:00N 35°52' E 014°52'  
2018-Jun-05 22:03N 40°28' E 026°50'0 9.0
2018-Jun-05 22:00N 40°28' E 026°50'  
2018-Jun-01 16:38N 37°38' E 023°47'1 9.3
2018-Jun-01 16:30N 37°38' E 023°45'5 9.6
2018-Jun-01 16:00N 37°39' E 023°39'6 9.6
2018-Jun-01 15:25N 37°39' E 023°32'4 9.5
2018-Jun-01 14:59N 37°40' E 023°27'5 9.8
2018-Jun-01 14:30N 37°40' E 023°21'5 8.6
2018-Jun-01 13:59N 37°43' E 023°17'5 9.4
2018-Jun-01 13:30N 37°47' E 023°13'5 9.6
2018-Jun-01 13:01N 37°51' E 023°10'5 9.3
2018-Jun-01 12:31N 37°53' E 023°05'3 6.3
2018-Jun-01 11:58N 37°55' E 023°01'0 0.0
2018-Jun-01 11:28N 37°55' E 023°01'0 0.0
2018-Jun-01 10:58N 37°55' E 023°01'0 0.0
2018-Jun-01 10:29N 37°55' E 023°01'0 0.0
2018-Jun-01 09:58N 37°55' E 023°01'0 0.0
2018-Jun-01 09:28N 37°55' E 023°01'0 0.0
2018-Jun-01 08:58N 37°55' E 023°01'0 0.0
2018-Jun-01 08:28N 37°55' E 023°01'0 0.0
2018-Jun-01 07:58N 37°55' E 023°01'0 0.0
2018-Jun-01 07:28N 37°55' E 023°01'0 0.0
2018-Jun-01 06:58N 37°55' E 023°01'0 0.0
2018-Jun-01 06:31N 37°55' E 023°01'0 0.0
2018-Jun-01 05:55N 37°55' E 023°01'0 0.0
2018-Jun-01 05:31N 37°55' E 023°01'0 0.0
2018-Jun-01 05:00N 37°55' E 023°01'0 0.0
2018-Jun-01 04:27N 37°55' E 023°01'0 0.0
2018-Jun-01 04:00N 37°55' E 023°01'0 0.0
2018-Jun-01 03:30N 37°55' E 023°01'0 0.0
2018-Jun-01 03:00N 37°55' E 023°01'0 0.0
2018-Jun-01 02:30N 37°55' E 023°01'0 0.0
2018-Jun-01 02:00N 37°55' E 023°01'0 0.0
2018-Jun-01 01:30N 37°55' E 023°01'0 0.0
2018-Jun-01 01:00N 37°55' E 023°01'0 0.0
2018-Jun-01 00:30N 37°55' E 023°01'0 0.0
2018-Jun-01 00:00N 37°55' E 023°01'0 0.0
2018-May-31 23:30N 37°55' E 023°01'0 0.0
2018-May-31 23:00N 37°55' E 023°01'0 0.0
2018-May-31 22:30N 37°55' E 023°01'0 0.0
2018-May-31 22:00N 37°55' E 023°01'0 0.0
2018-May-31 21:30N 37°55' E 023°01'0 0.0
2018-May-31 21:00N 37°55' E 023°01'0 0.0
2018-May-31 20:30N 37°55' E 023°01'0 0.0
2018-May-31 20:00N 37°55' E 023°01'0 0.0
2018-May-31 19:30N 37°55' E 023°01'0 0.0
2018-May-31 19:00N 37°55' E 023°01'0 0.0
2018-May-31 18:30N 37°55' E 023°01'0 0.0
2018-May-31 18:00N 37°55' E 023°01'0 0.0
2018-May-31 17:30N 37°55' E 023°01'0 0.0
2018-May-31 17:00N 37°55' E 023°01'0 0.0
2018-May-31 16:30N 37°55' E 023°01'0 0.0
2018-May-31 16:00N 37°55' E 023°01'0 0.0
2018-May-31 15:30N 37°55' E 023°01'0 0.0
2018-May-31 15:00N 37°55' E 023°01'0 0.0
2018-May-31 14:30N 37°55' E 023°01'0 0.0
2018-May-31 14:00N 37°55' E 023°01'0 0.0
2018-May-31 13:30N 37°55' E 023°01'0 0.0
2018-May-31 13:00N 37°55' E 023°01'0 0.0
2018-May-31 12:30N 37°55' E 023°01'0 0.0
2018-May-31 12:00N 37°55' E 023°01'0 0.0
2018-May-31 11:30N 37°55' E 023°01'0 0.0
2018-May-31 11:00N 37°55' E 023°01'0 0.0
2018-May-31 10:30N 37°55' E 023°01'0 0.0
2018-May-31 10:00N 37°55' E 023°01'0 0.0
2018-May-31 09:30N 37°55' E 023°01'0 0.0
2018-May-31 09:00N 37°55' E 023°01'0 0.0
2018-May-31 08:30N 37°55' E 023°01'0 0.0
2018-May-31 08:00N 37°55' E 023°01'  

Dump ship's entire track history